Météo Cheval Rigon

 

Relevés d'aujourd'hui



 

22/2/24
Time         Wind Dir   Wind Spd  Wind Gust   Humidity       Temp   Tot Rain Wind Chill  Dew Point   Barom SL Humidity R Temp Out R Tot Rain R   WindCh R   Dew Pt R SL Barom R Temp Out H Temp Out L  DailyRain   HourRain   24HrRain   RainRate  MonthRain
                          km/hr      km/hr          %         C         mm         C         C         mb       %/hr      C/hr      mm/hr      C/hr      C/hr      mm/hr         C         C         mm         mm         mm      mm/hr         mm
0:00              190         18         19         88        8.1     125.40        5.3        6.2    1014.77       -0.3       0.36      0.933      -1.59       0.33     -0.913        8.1        8.1       6.60       1.00       6.60      0.000      68.20
0:15              254          3         21         88        8.2     125.40        8.2        6.3    1014.64       -0.2       0.32      0.727       1.26       0.30     -0.814        8.2        8.1       0.00       0.80       6.60      0.000      68.20
0:30              209          8         18         86        8.3     125.40        7.0        6.1    1014.27       -1.9       0.35      0.566       0.06       0.04     -0.945        8.3        8.1       0.00       0.40       6.60      0.000      68.20
0:45              273          8         19         85        8.3     125.40        7.1        6.0    1014.03       -2.3       0.32      0.441       0.11      -0.06     -0.944        8.3        8.1       0.00       0.20       6.60      0.000      68.20
1:00              244          8         21         82        8.6     125.60        7.3        5.7    1013.76       -4.5       0.45      0.506       0.39      -0.31     -0.972        8.6        8.1       0.20       0.40       6.80      0.000      68.40
1:15              195          5         19         82        8.6     125.60        8.2        5.7    1013.76       -3.5       0.39      0.394       1.20      -0.20     -0.767        8.7        8.1       0.20       0.20       6.80      0.000      68.40
1:30              172          6         16         84        8.4     125.60        7.6        5.9    1013.42       -1.1       0.17      0.307       0.40      -0.01     -0.892        8.7        8.1       0.20       0.20       6.80      0.000      68.40
1:45              249         13         19         84        8.7     125.60        6.6        6.1    1013.18       -0.9       0.34      0.239      -0.65       0.19     -0.889        8.7        8.1       0.20       0.20       6.80      0.000      68.40
2:00              171         14         16         83        8.8     125.60        6.5        6.1    1012.71       -1.5       0.35      0.187      -0.78       0.10     -1.098        8.8        8.1       0.20       0.20       6.80      0.000      68.40
2:15              215         18         21         83        9.0     125.60        6.4        6.3    1012.13       -1.1       0.47      0.145      -0.87       0.27     -1.369        9.0        8.1       0.20       0.00       6.80      0.000      68.40
2:30              205         10         23         84        8.9     125.80        7.4        6.4    1011.83        0.2       0.31      0.299       0.18       0.35     -1.316        9.1        8.1       0.40       0.20       7.00      0.000      68.60
2:45              231         14         21         85        8.7     125.80        6.4        6.3    1011.52        1.0       0.00      0.234      -0.86       0.18     -1.313        9.1        8.1       0.40       0.20       7.00      0.000      68.60
3:00              240         10         24         85        8.8     125.80        7.3        6.5    1011.08        0.8       0.15      0.182       0.18       0.29     -1.409        9.1        8.1       0.40       0.20       7.00      0.000      68.60
3:15              184         13         26         84        9.0     126.00        7.0        6.4    1011.01       -0.2       0.27      0.334      -0.15       0.23     -1.172        9.1        8.1       0.60       0.40       7.20      0.000      68.80
3:30              271          8         34         83        9.1     126.00        7.9        6.3    1010.98       -1.1       0.26      0.261       0.75       0.07     -0.948        9.1        8.1       0.60       0.40       7.20      0.000      68.80
3:45              136         18         21         85        8.9     126.20        6.2        6.5    1010.61        1.0       0.05      0.398      -0.95       0.21     -1.055        9.1        8.1       0.80       0.40       7.40      0.000      69.00
4:00              242          6         21         88        8.6     126.60        7.8        6.7    1010.41        3.4      -0.20      0.663       0.61       0.37     -0.991        9.1        8.1       1.20       0.80       7.80      1.800      69.40
4:15              217         11         29         89        8.5     127.40        6.6        6.8    1010.17        3.5      -0.25      1.209      -0.47       0.35     -0.974        9.1        8.1       2.00       1.60       8.60      3.200      70.20
4:30              173         16         27         90        8.5     127.60        5.9        7.0    1009.46        3.6      -0.19      1.103      -1.07       0.41     -1.363        9.1        8.1       2.20       1.60       8.80      1.000      70.40
4:45              233         14         19         89        8.7     127.80        6.4        7.0    1008.85        1.9       0.00      1.026      -0.60       0.32     -1.595        9.1        8.1       2.40       1.80       9.00      0.800      70.60
5:00              205         10         24         88        8.8     128.00        7.2        6.9    1008.95        0.5       0.10      0.973       0.33       0.20     -1.128        9.1        8.1       2.60       1.80       9.20      0.000      70.80
5:15              194          8         23         87        8.8     128.00        7.6        6.8    1008.37       -0.5       0.13      0.757       0.66       0.04     -1.375        9.1        8.1       2.60       1.40       9.20      0.000      70.80
5:30              191         16         26         85        9.1     128.00        6.7        6.7    1007.90       -2.2       0.36      0.591      -0.33      -0.02     -1.475        9.1        8.1       2.60       0.60       9.20      0.000      70.80
5:45              257         16         23         82        9.3     128.00        7.0        6.4    1007.66       -4.4       0.48      0.460      -0.17      -0.29     -1.350        9.3        8.1       2.60       0.40       9.20      0.000      70.80
6:00              247         27         27         81        9.6     128.00        6.2        6.5    1007.36       -4.3       0.56      0.358      -1.10      -0.19     -1.314        9.6        8.1       2.60       0.20       9.20      0.000      70.80
6:15              224          6         27         79        9.7     128.00        9.1        6.3    1007.15       -5.1       0.58      0.279       1.56      -0.34     -1.209        9.7        8.1       2.60       0.00       9.20      0.000      70.80
6:30              255         10         26         78        9.9     128.00        8.6        6.2    1007.09       -5.0       0.61      0.217       0.90      -0.30     -1.008        9.9        8.1       2.60       0.00       9.20      0.000      70.80
6:45              215         14         24         77       10.0     128.00        8.0        6.2    1006.88       -4.8       0.57      0.170       0.17      -0.31     -0.968       10.1        8.1       2.60       0.00       9.20      0.000      70.80
7:00              218         14         32         76       10.1     128.00        8.1        6.1    1006.68       -4.7       0.54      0.132       0.17      -0.32     -0.925       10.1        8.1       2.60       0.00       9.20      0.000      70.80
7:15              206          8         23         76       10.1     128.00        9.1        6.1    1006.51       -3.7       0.43      0.103       1.04      -0.25     -0.890       10.2        8.1       2.60       0.00       9.20      0.000      70.80
7:30              279         11         32         75       10.2     128.00        8.6        5.9    1006.58       -3.8       0.38      0.080       0.47      -0.33     -0.635       10.2        8.1       2.60       0.00       9.20      0.000      70.80
7:45              232         11         23         74       10.3     128.00        8.8        5.9    1006.54       -3.9       0.39      0.062       0.49      -0.35     -0.515       10.3        8.1       2.60       0.00       9.20      0.000      70.80
8:00              219         18         24         73       10.4     128.00        8.2        5.8    1006.58       -4.0       0.45      0.049      -0.21      -0.32     -0.397       10.4        8.1       2.60       0.00       9.20      0.000      70.80
8:15              228          8         21         72       10.6     128.00        9.7        5.7    1006.24       -4.0       0.45      0.038       1.07      -0.34     -0.625       10.6        8.1       2.60       0.00       9.20      0.000      70.80
8:30              219         16         26         75       10.3     128.20        8.2        6.1    1006.07       -0.3       0.12      0.229      -0.52       0.08     -0.634       10.7        8.1       2.80       0.20       9.40      0.000      71.00
8:45              235         11         23         77        9.9     128.20        8.3        6.1    1006.27        1.5      -0.28      0.178      -0.43       0.02     -0.312       10.7        8.1       2.80       0.20       9.40      0.000      71.00
9:00              252         13         24         77        9.8     128.40        8.0        6.0    1006.07        1.1      -0.28      0.316      -0.67      -0.05     -0.411       10.7        8.1       3.00       0.40       9.60      0.000      71.20
9:15              180         14         27         74       10.2     128.40        8.3        5.8    1005.63       -2.0       0.13      0.246      -0.36      -0.25     -0.719       10.7        8.1       3.00       0.40       9.60      0.000      71.20
9:30              240         19         37         71       10.7     128.40        8.4        5.7    1005.22       -4.3       0.53      0.192      -0.29      -0.32     -0.945       10.7        8.1       3.00       0.40       9.60      0.000      71.20
9:45              265         16         29         68       11.2     128.40        9.2        5.5    1004.45       -5.9       0.79      0.150       0.46      -0.43     -1.421       11.2        8.1       3.00       0.20       9.60      0.000      71.20
10:00             212         14         31         68       11.1     128.40        9.4        5.4    1004.04       -4.5       0.56      0.116       0.45      -0.36     -1.456       11.2        8.1       3.00       0.20       9.60      0.000      71.20
10:15             202         11         31         66       11.4     128.40       10.1        5.3    1003.67       -5.4       0.69      0.091       1.06      -0.43     -1.473       11.4        8.1       3.00       0.00       9.60      0.000      71.20
10:30             229         11         32         64       11.6     128.40       10.4        5.0    1003.43       -6.1       0.74      0.071       1.08      -0.57     -1.358       11.6        8.1       3.00       0.00       9.60      0.000      71.20
10:45             245          2         23         63       12.0     128.40       12.0        5.2    1003.36       -5.8       0.92      0.055       2.33      -0.35     -1.119       12.0        8.1       3.00       0.00       9.60      0.000      71.20
11:00              80         13         23         61       12.5     128.40       11.2        5.2    1003.06       -6.3       1.17      0.043       1.22      -0.28     -1.155       12.5        8.1       3.00       0.00       9.60      0.000      71.20
11:15             176         16         21         60       12.7     128.40       11.1        5.1    1002.65       -5.9       1.06      0.033       0.70      -0.30     -1.260       12.7        8.1       3.00       0.00       9.60      0.000      71.20
11:30             215          6         29         61       12.7     128.40       12.5        5.3    1002.18       -3.6       0.83      0.026       1.75       0.01     -1.397       12.7        8.1       3.00       0.00       9.60      0.000      71.20
11:45             281         10         24         57       13.6     128.40       12.9        5.2    1001.80       -6.2       1.42      0.020       1.92      -0.10     -1.419       13.6        8.1       3.00       0.00       9.60      0.000      71.20
12:00             229         18         26         54       14.0     128.40       12.6        4.8    1001.63       -7.3       1.47      0.016       1.15      -0.37     -1.211       14.1        8.1       3.00       0.00       9.60      0.000      71.20
12:15             215         11         27         53       13.9     128.40       13.2        4.5    1001.53       -6.5       1.09      0.012       1.36      -0.56     -1.020       14.1        8.1       3.00       0.00       9.60      0.000      71.20
12:30             317         19         31         53       13.9     128.40       12.3        4.5    1001.02       -5.1       0.80      0.010       0.22      -0.49     -1.240       14.1        8.1       3.00       0.00       9.60      0.000      71.20
12:45             198         13         27         55       13.4     128.40       12.3        4.5    1000.89       -2.1       0.15      0.007       0.05      -0.33     -1.075       14.1        8.1       3.00       0.00       9.60      0.000      71.20
13:00             192         18         24         62       12.4     128.40       10.6        5.3    1000.55        4.6      -0.76      0.006      -1.57       0.44     -1.144       14.1        8.1       3.00       0.00       9.60      0.000      71.20
13:15             208         24         24         60       12.6     128.40       10.4        5.1     999.97        1.7      -0.38      0.005      -1.68       0.10     -1.395       14.1        8.1       3.00       0.00       9.60      0.000      71.20
13:30             185         10         31         58       12.8     128.40       12.0        4.7     999.30       -0.4      -0.16      0.004       0.02      -0.21     -1.678       14.1        8.1       3.00       0.00       9.60      0.000      71.20
13:45             257         11         23         58       13.0     128.40       12.1        4.9     998.69       -0.3       0.07      0.003       0.04       0.02     -1.858       14.1        8.1       3.00       0.00       9.60      0.000      71.20
14:00             240          8         29         58       12.9     128.40       12.5        4.9     998.21       -0.2      -0.00      0.002       0.43      -0.03     -1.853       14.1        8.1       3.00       0.00       9.60      0.000      71.20
14:15             209         11         29         57       13.3     128.40       12.4        4.9     997.13       -1.0       0.30      0.002       0.29       0.06     -2.376       14.1        8.1       3.00       0.00       9.60      0.000      71.20
14:30             215         21         26         55       13.9     128.40       12.3        5.1     996.96       -2.3       0.81      0.001       0.02       0.18     -1.996       14.1        8.1       3.00       0.00       9.60      0.000      71.20
14:45             207         18         27         54       14.2     128.40       12.9        5.1     996.35       -2.6       0.86      0.001       0.35       0.14     -2.074       14.3        8.1       3.00       0.00       9.60      0.000      71.20
15:00             217         11         26         54       14.2     128.40       13.5        5.0     996.15       -2.1       0.64      0.001       0.77       0.06     -1.785       14.3        8.1       3.00       0.00       9.60      0.000      71.20
15:15             261         13         32         54       14.2     128.40       13.3        5.0     995.81       -1.7       0.50      0.001       0.49       0.05     -1.685       14.3        8.1       3.00       0.00       9.60      0.000      71.20
15:30             241         14         32         53       14.3     128.40       13.3        4.9     995.57       -2.1       0.53      0.000       0.40      -0.06     -1.504       14.4        8.1       3.00       0.00       9.60      0.000      71.20
15:45             311         16         34         55       14.1     128.40       12.8        5.2     995.71        0.2       0.16      0.000      -0.18       0.21     -1.052       14.4        8.1       3.00       0.00       9.60      0.000      71.20
16:00             221         13         26         56       13.7     128.40       12.7        5.1     996.32        1.1      -0.16      0.000      -0.25       0.15     -0.295       14.4        8.1       3.00       0.00       9.60      0.000      71.20
16:15             255         11         27         57       13.4     128.40       12.5        5.1     996.59        1.7      -0.41      0.000      -0.41       0.06     -0.006       14.4        8.1       3.00       0.00       9.60      0.000      71.20
16:30             240          8         23         56       13.4     128.40       13.1        4.8     996.18        0.5      -0.27      0.000       0.17      -0.12     -0.381       14.4        8.1       3.00       0.00       9.60      0.000      71.20
16:45             238         11         23         55       13.4     128.40       12.6        4.6     995.78       -0.6      -0.20      0.000      -0.26      -0.32     -0.642       14.4        8.1       3.00       0.00       9.60      0.000      71.20
17:00             235         19         37         53       13.6     128.40       12.0        4.2     995.71       -2.1      -0.02      0.000      -0.77      -0.57     -0.558       14.4        8.1       3.00       0.00       9.60      0.000      71.20
17:15             233         18         29         52       13.5     128.40       12.0        3.8     996.11       -2.5      -0.11      0.000      -0.69      -0.75     -0.058       14.4        8.1       3.00       0.00       9.60      0.000      71.20
17:30             194         23         35         53       13.3     128.40       11.4        4.0     996.79       -1.1      -0.23      0.000      -1.13      -0.49      0.560       14.4        8.1       3.00       0.00       9.60      0.000      71.20
17:45             169          6         31         56       13.0     128.40       12.8        4.4     996.79        1.8      -0.47      0.000       0.43       0.04      0.438       14.4        8.1       3.00       0.00       9.60      0.000      71.20
18:00             211         14         37         58       12.6     128.40       11.1        4.5     997.37        3.3      -0.76      0.000      -1.01       0.13      0.890       14.4        8.1       3.00       0.00       9.60      0.000      71.20

 


 

 

 

Retour accueil